createdAt,value
2023-01-06T00:00:19.810Z,98480.52
2023-01-06T00:02:49.688Z,98476.68
2023-01-06T00:05:19.507Z,98476.68
2023-01-06T00:07:50.944Z,98474.46
2023-01-06T00:10:21.151Z,98471.45
2023-01-06T00:12:50.555Z,98466.25
2023-01-06T00:15:19.857Z,98461.84
2023-01-06T00:17:50.009Z,98461.84
2023-01-06T00:20:19.570Z,98464.56
2023-01-06T00:22:49.602Z,98461.78
2023-01-06T00:25:19.675Z,98459.30
2023-01-06T00:27:49.126Z,98462.03
2023-01-06T00:30:19.104Z,98459.81
2023-01-06T00:32:51.172Z,98460.36
2023-01-06T00:35:20.375Z,98461.16
2023-01-06T00:37:50.518Z,98466.06
2023-01-06T00:40:20.725Z,98474.20
2023-01-06T00:42:50.536Z,98470.86
2023-01-06T00:45:19.734Z,98480.41
2023-01-06T00:47:52.603Z,98474.67
2023-01-06T00:50:22.263Z,98479.27
2023-01-06T00:52:51.443Z,98480.64
2023-01-06T00:55:20.870Z,98498.91
2023-01-06T00:57:52.203Z,98488.22
2023-01-06T01:00:22.194Z,98480.80
2023-01-06T01:02:51.598Z,98470.42
2023-01-06T01:05:21.222Z,98478.61
2023-01-06T01:07:50.933Z,98482.39
2023-01-06T01:10:20.243Z,98477.73
2023-01-06T01:12:49.596Z,98472.78
2023-01-06T01:15:19.242Z,98474.94
2023-01-06T01:17:48.791Z,98477.89
2023-01-06T01:20:21.434Z,98475.16
2023-01-06T01:22:50.921Z,98462.00
2023-01-06T01:25:20.191Z,98468.81
2023-01-06T01:27:49.702Z,98467.67
2023-01-06T01:30:19.004Z,98468.22
2023-01-06T01:32:50.122Z,98468.47
2023-01-06T01:35:19.409Z,98475.52
2023-01-06T01:37:48.839Z,98482.88
2023-01-06T01:40:19.124Z,98480.91
2023-01-06T01:42:48.862Z,98481.66
2023-01-06T01:45:25.649Z,98485.75
2023-01-06T01:47:57.289Z,98479.34
2023-01-06T01:50:30.469Z,98486.77
2023-01-06T01:53:03.776Z,98479.66
2023-01-06T01:55:33.024Z,98482.08
2023-01-06T01:58:12.990Z,98477.70
2023-01-06T02:00:42.219Z,98474.69
2023-01-06T02:03:11.546Z,98480.90
2023-01-06T02:05:41.572Z,98471.05
2023-01-06T02:08:12.228Z,98473.20
2023-01-06T02:10:41.486Z,98487.88
2023-01-06T02:13:12.872Z,98488.12
2023-01-06T02:15:41.467Z,98486.45
2023-01-06T02:18:21.087Z,98476.62
2023-01-06T02:21:10.681Z,98485.33
2023-01-06T02:23:47.274Z,98475.48
2023-01-06T02:26:34.790Z,98474.91
2023-01-06T02:29:20.466Z,98466.88
2023-01-06T02:32:08.849Z,98474.30
2023-01-06T02:34:43.173Z,98473.09
2023-01-06T02:37:25.673Z,98462.19
2023-01-06T02:39:59.218Z,98460.00
2023-01-06T02:42:29.955Z,98452.30
2023-01-06T02:45:06.580Z,98459.36
2023-01-06T02:47:53.694Z,98457.39
2023-01-06T02:50:27.463Z,98466.94
2023-01-06T02:53:10.446Z,98457.08
2023-01-06T02:55:41.166Z,98453.78
2023-01-06T02:58:11.848Z,98463.00
2023-01-06T03:00:51.943Z,98472.47
2023-01-06T03:03:23.423Z,98467.27
2023-01-06T03:05:53.989Z,98462.52
2023-01-06T03:08:24.696Z,98471.52
2023-01-06T03:10:53.892Z,98466.89
2023-01-06T03:13:27.516Z,98458.71
2023-01-06T03:15:56.789Z,98462.04
2023-01-06T03:18:26.070Z,98473.84
2023-01-06T03:20:55.328Z,98474.50
2023-01-06T03:23:24.528Z,98462.66
2023-01-06T03:25:53.810Z,98469.06
2023-01-06T03:28:23.163Z,98471.39
2023-01-06T03:30:53.774Z,98470.47
2023-01-06T03:33:30.413Z,98470.34
2023-01-06T03:36:04.321Z,98476.47
2023-01-06T03:38:53.126Z,98474.09
2023-01-06T03:41:30.858Z,98484.30
2023-01-06T03:44:01.562Z,98485.47
2023-01-06T03:46:32.282Z,98483.13
2023-01-06T03:49:05.997Z,98486.19
2023-01-06T03:51:53.305Z,98490.34
2023-01-06T03:54:24.251Z,98497.00
2023-01-06T03:57:10.064Z,98507.47
2023-01-06T03:59:40.866Z,98506.45
2023-01-06T04:02:10.128Z,98510.06
2023-01-06T04:04:39.445Z,98506.32
2023-01-06T04:07:08.797Z,98503.42
2023-01-06T04:09:39.624Z,98496.89
2023-01-06T04:12:26.302Z,98492.63
2023-01-06T04:14:55.637Z,98495.70
2023-01-06T04:17:24.827Z,98497.95
2023-01-06T04:19:54.027Z,98494.73
2023-01-06T04:22:23.399Z,98494.25
2023-01-06T04:24:52.628Z,98486.66
2023-01-06T04:27:21.812Z,98484.30
2023-01-06T04:29:52.638Z,98481.60
2023-01-06T04:32:21.877Z,98484.39
2023-01-06T04:34:51.190Z,98486.66
2023-01-06T04:37:21.549Z,98483.73
2023-01-06T04:39:51.075Z,98477.19
2023-01-06T04:42:21.092Z,98476.20
2023-01-06T04:44:51.159Z,98483.07
2023-01-06T04:47:21.030Z,98476.30
2023-01-06T04:49:52.500Z,98455.02
2023-01-06T04:52:21.844Z,98464.41
2023-01-06T04:54:51.104Z,98465.59
2023-01-06T04:57:22.762Z,98460.73
2023-01-06T04:59:52.292Z,98467.06
2023-01-06T05:02:21.561Z,98465.75
2023-01-06T05:04:51.447Z,98457.61
2023-01-06T05:07:23.012Z,98459.28
2023-01-06T05:09:52.243Z,98460.72
2023-01-06T05:12:21.469Z,98460.49
2023-01-06T05:14:51.695Z,98459.17
2023-01-06T05:17:21.402Z,98449.38
2023-01-06T05:19:51.410Z,98449.71
2023-01-06T05:22:22.968Z,98440.20
2023-01-06T05:24:52.707Z,98433.11
2023-01-06T05:27:23.285Z,98430.19
2023-01-06T05:29:52.928Z,98417.63
2023-01-06T05:32:22.181Z,98413.06
2023-01-06T05:34:51.504Z,98412.02
2023-01-06T05:37:21.386Z,98405.78
2023-01-06T05:39:51.585Z,98404.41
2023-01-06T05:42:21.219Z,98408.56
2023-01-06T05:44:51.219Z,98403.14
2023-01-06T05:47:21.389Z,98415.77
2023-01-06T05:49:50.978Z,98414.44
2023-01-06T05:52:20.860Z,98420.50
2023-01-06T05:54:50.725Z,98415.03
2023-01-06T05:57:20.533Z,98423.02
2023-01-06T05:59:52.172Z,98411.84
2023-01-06T06:02:21.464Z,98402.83
2023-01-06T06:04:51.302Z,98399.39
2023-01-06T06:07:21.661Z,98398.30
2023-01-06T06:09:50.869Z,98405.72
2023-01-06T06:12:20.278Z,98402.20
2023-01-06T06:14:50.394Z,98404.16
2023-01-06T06:17:20.288Z,98404.44
2023-01-06T06:19:50.411Z,98398.78
2023-01-06T06:22:20.406Z,98400.70
2023-01-06T06:24:53.054Z,98395.27
2023-01-06T06:27:22.311Z,98384.87
2023-01-06T06:29:53.036Z,98389.30
2023-01-06T06:32:23.582Z,98378.13
2023-01-06T06:34:54.539Z,98373.52
2023-01-06T06:37:24.099Z,98379.27
2023-01-06T06:39:54.688Z,98382.03
2023-01-06T06:42:24.284Z,98373.05
2023-01-06T06:44:53.959Z,98381.30
2023-01-06T06:47:23.264Z,98382.70
2023-01-06T06:49:52.595Z,98380.78
2023-01-06T06:52:22.061Z,98375.90
2023-01-06T06:54:51.393Z,98378.39
2023-01-06T06:57:21.301Z,98377.06
2023-01-06T07:02:25.930Z,98380.66
2023-01-06T07:04:55.177Z,98380.70
2023-01-06T07:07:24.579Z,98372.22
2023-01-06T07:09:56.999Z,98367.88
2023-01-06T07:12:26.263Z,98357.79
2023-01-06T07:14:57.032Z,98355.64
2023-01-06T07:17:29.671Z,98352.35
2023-01-06T07:20:00.506Z,98350.20
2023-01-06T07:22:30.117Z,98347.47
2023-01-06T07:24:59.321Z,98347.22
2023-01-06T07:27:28.738Z,98353.28
2023-01-06T07:29:57.983Z,98357.42
2023-01-06T07:32:27.069Z,98354.13
2023-01-06T07:34:56.255Z,98355.81
2023-01-06T07:37:25.542Z,98358.89
2023-01-06T07:39:54.940Z,98352.86
2023-01-06T07:42:24.162Z,98344.38
2023-01-06T07:44:53.479Z,98334.28
2023-01-06T07:47:22.719Z,98332.09
2023-01-06T07:49:51.970Z,98333.22
2023-01-06T07:52:21.565Z,98332.95
2023-01-06T07:54:51.509Z,98326.41
2023-01-06T07:57:24.221Z,98335.20
2023-01-06T07:59:53.505Z,98345.88
2023-01-06T08:02:22.801Z,98343.72
2023-01-06T08:04:51.989Z,98351.39
2023-01-06T08:07:21.296Z,98359.36
2023-01-06T08:09:50.692Z,98363.19
2023-01-06T08:12:20.655Z,98371.98
2023-01-06T08:14:50.758Z,98365.69
2023-01-06T08:17:20.675Z,98356.95
2023-01-06T08:19:50.618Z,98348.47
2023-01-06T08:22:20.822Z,98353.16
2023-01-06T08:24:50.673Z,98358.39
2023-01-06T08:27:21.501Z,98360.85
2023-01-06T08:29:53.115Z,98357.84
2023-01-06T08:32:27.028Z,98340.89
2023-01-06T08:34:56.238Z,98326.95
2023-01-06T08:37:25.766Z,98325.31
2023-01-06T08:39:55.205Z,98337.94
2023-01-06T08:42:25.043Z,98331.13
2023-01-06T08:44:54.491Z,98328.39
2023-01-06T08:47:23.674Z,98331.61
2023-01-06T08:49:53.107Z,98349.90
2023-01-06T08:52:22.579Z,98356.41
2023-01-06T08:54:51.812Z,98373.36
2023-01-06T08:57:21.085Z,98386.98
2023-01-06T08:59:50.997Z,98395.70
2023-01-06T09:02:20.680Z,98383.34
2023-01-06T09:04:50.967Z,98343.35
2023-01-06T09:07:20.945Z,98343.31
2023-01-06T09:09:50.992Z,98341.61
2023-01-06T09:12:20.714Z,98332.23
2023-01-06T09:14:51.136Z,98337.13
2023-01-06T09:17:20.846Z,98328.06
2023-01-06T09:19:50.890Z,98322.52
2023-01-06T09:22:20.910Z,98325.77
2023-01-06T09:24:50.835Z,98316.71
2023-01-06T09:27:22.783Z,98328.75
2023-01-06T09:29:52.546Z,98319.10
2023-01-06T09:32:22.182Z,98311.41
2023-01-06T09:34:51.451Z,98306.69
2023-01-06T09:37:20.981Z,98301.45
2023-01-06T09:39:50.558Z,98292.94
2023-01-06T09:42:33.406Z,98295.36
2023-01-06T09:45:07.044Z,98291.73
2023-01-06T09:47:37.729Z,98278.06
2023-01-06T09:50:08.386Z,98296.04
2023-01-06T09:52:39.125Z,98293.81
2023-01-06T09:55:12.571Z,98286.94
2023-01-06T09:57:44.850Z,98277.87
2023-01-06T10:00:19.168Z,98270.45
2023-01-06T10:02:49.076Z,98271.24
2023-01-06T10:05:23.044Z,98295.58
2023-01-06T10:08:00.009Z,98286.86
2023-01-06T10:10:36.846Z,98271.28
2023-01-06T10:13:07.470Z,98264.20
2023-01-06T10:15:44.281Z,98222.92
2023-01-06T10:18:21.015Z,98221.31
2023-01-06T10:20:52.416Z,98221.34
2023-01-06T10:23:31.934Z,98200.56
2023-01-06T10:26:02.548Z,98185.25
2023-01-06T10:28:33.433Z,98196.70
2023-01-06T10:31:18.863Z,98202.37
2023-01-06T10:33:54.436Z,98192.80
2023-01-06T10:36:26.539Z,98190.00
2023-01-06T10:38:55.788Z,98187.78
2023-01-06T10:41:26.315Z,98181.42
2023-01-06T10:43:55.568Z,98194.00
2023-01-06T10:46:24.953Z,98201.34
2023-01-06T10:48:54.227Z,98212.24
2023-01-06T10:51:36.880Z,98232.16
2023-01-06T10:54:07.527Z,98253.45
2023-01-06T10:56:40.158Z,98258.88
2023-01-06T10:59:10.224Z,98267.03
2023-01-06T11:01:41.138Z,98267.84
2023-01-06T11:04:12.461Z,98270.00
2023-01-06T11:06:42.472Z,98263.13
2023-01-06T11:09:13.113Z,98258.67
2023-01-06T11:11:50.061Z,98254.56
2023-01-06T11:14:21.470Z,98259.45
2023-01-06T11:17:01.019Z,98266.23
2023-01-06T11:19:34.583Z,98240.78
2023-01-06T11:22:03.847Z,98209.32
2023-01-06T11:24:33.101Z,98180.88
2023-01-06T11:27:03.143Z,98165.53
2023-01-06T11:29:36.711Z,98169.05
2023-01-06T11:32:07.643Z,98175.84
2023-01-06T11:34:36.897Z,98202.56
2023-01-06T11:37:06.775Z,98209.91
2023-01-06T11:39:36.957Z,98216.17
2023-01-06T11:42:09.836Z,98222.42
2023-01-06T11:44:40.062Z,98229.75
2023-01-06T11:47:23.990Z,98218.23
2023-01-06T11:49:57.471Z,98195.52
2023-01-06T11:52:28.132Z,98185.38
2023-01-06T11:55:02.095Z,98169.47
2023-01-06T11:57:32.698Z,98165.09
2023-01-06T12:00:06.863Z,98173.75
2023-01-06T12:02:40.598Z,98177.30
2023-01-06T12:05:11.304Z,98174.22
2023-01-06T12:07:42.397Z,98175.53
2023-01-06T12:10:25.300Z,98170.89
2023-01-06T12:12:56.282Z,98180.67
2023-01-06T12:15:25.700Z,98186.09
2023-01-06T12:17:56.117Z,98195.61
2023-01-06T12:20:26.791Z,98195.56
2023-01-06T12:22:56.987Z,98203.16
2023-01-06T12:25:27.397Z,98195.47
2023-01-06T12:27:57.605Z,98176.62
2023-01-06T12:30:31.332Z,98176.58
2023-01-06T12:33:01.701Z,98171.90
2023-01-06T12:35:31.032Z,98150.02
2023-01-06T12:38:01.726Z,98156.26
2023-01-06T12:40:35.760Z,98161.39
2023-01-06T12:43:06.428Z,98161.66
2023-01-06T12:45:56.531Z,98155.06
2023-01-06T12:48:20.146Z,98171.67
2023-01-06T12:50:53.787Z,98169.16
2023-01-06T12:53:27.768Z,98155.19
2023-01-06T12:56:04.652Z,98157.61
2023-01-06T12:58:51.715Z,98155.66
2023-01-06T13:01:22.539Z,98158.11
2023-01-06T13:03:59.182Z,98156.95
2023-01-06T13:06:41.910Z,98150.37
2023-01-06T13:09:24.408Z,98091.12
2023-01-06T13:12:07.295Z,98071.99
2023-01-06T13:14:50.791Z,98077.68
2023-01-06T13:17:21.989Z,98074.64
2023-01-06T13:19:52.917Z,98083.04
2023-01-06T13:22:23.692Z,98094.19
2023-01-06T13:25:13.927Z,98070.45
2023-01-06T13:27:56.943Z,98031.95
2023-01-06T13:30:27.513Z,98039.27
2023-01-06T13:33:15.092Z,98030.81
2023-01-06T13:35:48.426Z,98024.77
2023-01-06T13:38:19.060Z,98048.18
2023-01-06T13:40:50.066Z,98063.13
2023-01-06T13:43:21.229Z,98059.00
2023-01-06T13:45:52.913Z,98057.89
2023-01-06T13:48:23.343Z,98049.67
2023-01-06T13:50:52.627Z,98038.77
2023-01-06T13:53:22.742Z,98034.63
2023-01-06T13:55:53.451Z,98036.77
2023-01-06T13:58:24.087Z,98067.53
2023-01-06T14:01:11.135Z,98086.05
2023-01-06T14:03:40.832Z,98089.32
2023-01-06T14:06:17.512Z,98086.83
2023-01-06T14:08:56.102Z,98069.88
2023-01-06T14:14:29.202Z,98036.25
2023-01-06T14:16:58.387Z,98020.44
2023-01-06T14:19:28.985Z,98019.30
2023-01-06T14:21:59.760Z,98004.03
2023-01-06T14:24:35.947Z,98009.44
2023-01-06T14:27:04.852Z,98002.03
2023-01-06T14:29:44.609Z,98023.84
2023-01-06T14:32:19.046Z,98015.61
2023-01-06T14:34:54.299Z,98009.89
2023-01-06T14:37:25.060Z,97990.48
2023-01-06T14:39:55.519Z,97987.75
2023-01-06T14:42:27.459Z,97962.64
2023-01-06T14:44:56.820Z,97959.33
2023-01-06T14:47:35.624Z,97980.36
2023-01-06T14:50:07.373Z,97974.64
2023-01-06T14:52:41.276Z,97962.15
2023-01-06T14:55:14.811Z,97979.37
2023-01-06T14:57:44.093Z,97991.13
2023-01-06T15:00:18.377Z,97990.95
2023-01-06T15:02:47.880Z,98004.36
2023-01-06T15:05:20.894Z,98012.59
2023-01-06T15:08:09.181Z,98018.09
2023-01-06T15:10:41.823Z,98003.95
2023-01-06T15:13:24.355Z,98005.67
2023-01-06T15:15:54.511Z,98012.54
2023-01-06T15:18:23.696Z,98028.45
2023-01-06T15:20:53.475Z,98033.72
2023-01-06T15:23:22.697Z,98030.00
2023-01-06T15:25:53.744Z,98027.36
2023-01-06T15:28:29.521Z,98024.98
2023-01-06T15:30:58.848Z,98045.02
2023-01-06T15:33:29.751Z,98054.34
2023-01-06T15:35:59.477Z,98049.52
2023-01-06T15:38:34.974Z,98035.92
2023-01-06T15:41:04.263Z,98043.88
2023-01-06T15:43:38.121Z,98063.33
2023-01-06T15:46:08.346Z,98055.47
2023-01-06T15:48:37.724Z,98063.97
2023-01-06T15:51:13.360Z,98070.83
2023-01-06T15:53:42.583Z,98068.45
2023-01-06T15:56:13.144Z,98059.22
2023-01-06T15:58:42.407Z,98036.88
2023-01-06T16:01:21.857Z,98030.84
2023-01-06T16:03:53.636Z,98052.94
2023-01-06T16:06:32.359Z,98056.73
2023-01-06T16:09:21.184Z,98066.28
2023-01-06T16:11:58.354Z,98060.55
2023-01-06T16:14:29.081Z,98063.00
2023-01-06T16:17:09.064Z,98073.91
2023-01-06T16:19:39.662Z,98073.91
2023-01-06T16:22:09.711Z,98053.45
2023-01-06T16:24:40.598Z,98052.04
2023-01-06T16:27:10.037Z,98055.32
2023-01-06T16:29:39.515Z,98041.67
2023-01-06T16:32:29.043Z,98037.31
2023-01-06T16:34:58.334Z,98030.48
2023-01-06T16:37:27.655Z,98019.29
2023-01-06T16:39:58.324Z,98010.56
2023-01-06T16:42:46.759Z,98005.64
2023-01-06T16:45:26.565Z,98018.44
2023-01-06T16:47:55.836Z,98027.17
2023-01-06T16:50:26.505Z,98024.16
2023-01-06T16:52:57.238Z,98023.34
2023-01-06T16:55:26.895Z,98017.03
2023-01-06T16:57:56.149Z,98013.25
2023-01-06T17:00:25.467Z,98009.39
2023-01-06T17:02:54.819Z,98000.66
2023-01-06T17:05:25.602Z,98006.11
2023-01-06T17:07:55.591Z,98013.21
2023-01-06T17:10:25.147Z,98004.16
2023-01-06T17:13:13.393Z,98009.08
2023-01-06T17:15:42.570Z,97997.34
2023-01-06T17:18:22.365Z,97982.57
2023-01-06T17:20:54.686Z,97986.39
2023-01-06T17:23:25.222Z,97982.84
2023-01-06T17:25:55.996Z,97970.56
2023-01-06T17:28:25.170Z,97957.16
2023-01-06T17:30:54.470Z,97960.97
2023-01-06T17:33:23.691Z,97957.12
2023-01-06T17:35:53.979Z,97944.84
2023-01-06T17:38:26.200Z,97947.02
2023-01-06T17:40:56.273Z,97933.66
2023-01-06T17:43:29.668Z,97935.56
2023-01-06T17:45:58.838Z,97931.47
2023-01-06T17:48:29.535Z,97924.61
2023-01-06T17:50:59.998Z,97916.42
2023-01-06T17:53:50.338Z,97906.02
2023-01-06T17:56:21.704Z,97894.84
2023-01-06T17:58:51.343Z,97873.25
2023-01-06T18:01:24.257Z,97863.12
2023-01-06T18:03:53.840Z,97847.03
2023-01-06T18:06:30.694Z,97841.34
2023-01-06T18:09:04.281Z,97835.58
2023-01-06T18:11:43.413Z,97829.60
2023-01-06T18:14:16.797Z,97820.30
2023-01-06T18:16:46.660Z,97809.11
2023-01-06T18:19:26.401Z,97796.53
2023-01-06T18:21:55.665Z,97803.34
2023-01-06T18:24:35.579Z,97799.80
2023-01-06T18:27:05.526Z,97788.34
2023-01-06T18:29:38.107Z,97776.04
2023-01-06T18:32:26.689Z,97772.77
2023-01-06T18:34:56.965Z,97763.46
2023-01-06T18:37:26.957Z,97756.12
2023-01-06T18:39:57.797Z,97750.67
2023-01-06T18:42:33.942Z,97764.01
2023-01-06T18:45:22.949Z,97752.80
2023-01-06T18:47:53.607Z,97759.92
2023-01-06T18:50:28.031Z,97741.88
2023-01-06T18:52:57.838Z,97749.25
2023-01-06T18:55:34.241Z,97729.61
2023-01-06T18:58:04.640Z,97725.79
2023-01-06T19:00:40.538Z,97708.06
2023-01-06T19:03:27.610Z,97701.80
2023-01-06T19:06:01.971Z,97694.43
2023-01-06T19:08:32.967Z,97699.58
2023-01-06T19:11:02.375Z,97703.67
2023-01-06T19:13:31.554Z,97697.94
2023-01-06T19:16:04.394Z,97692.48
2023-01-06T19:18:38.341Z,97691.13
2023-01-06T19:21:10.216Z,97683.48
2023-01-06T19:23:39.336Z,97680.22
2023-01-06T19:26:10.859Z,97664.94
2023-01-06T19:28:40.094Z,97656.46
2023-01-06T19:31:10.701Z,97651.83
2023-01-06T19:33:40.779Z,97640.09
2023-01-06T19:36:17.752Z,97626.19
2023-01-06T19:38:47.008Z,97628.65
2023-01-06T19:41:17.873Z,97624.83
2023-01-06T19:43:47.091Z,97627.28
2023-01-06T19:46:25.844Z,97618.55
2023-01-06T19:48:55.193Z,97609.56
2023-01-06T19:51:37.554Z,97610.08
2023-01-06T19:54:08.263Z,97597.80
2023-01-06T19:56:39.006Z,97595.38
2023-01-06T19:59:09.655Z,97590.47
2023-01-06T20:01:38.956Z,97584.17
2023-01-06T20:04:21.215Z,97587.44
2023-01-06T20:06:50.808Z,97599.44
2023-01-06T20:09:22.188Z,97583.33
2023-01-06T20:11:52.210Z,97587.98
2023-01-06T20:14:21.657Z,97589.89
2023-01-06T20:16:53.072Z,97589.62
2023-01-06T20:19:25.300Z,97580.08
2023-01-06T20:21:55.482Z,97566.17
2023-01-06T20:24:24.047Z,97563.69
2023-01-06T20:26:53.918Z,97564.81
2023-01-06T20:29:26.119Z,97556.63
2023-01-06T20:31:55.509Z,97559.08
2023-01-06T20:34:24.787Z,97553.08
2023-01-06T20:36:56.987Z,97557.17
2023-01-06T20:39:26.267Z,97556.63
2023-01-06T20:41:55.639Z,97549.81
2023-01-06T20:44:24.897Z,97546.27
2023-01-06T20:46:54.318Z,97548.45
2023-01-06T20:49:23.651Z,97553.63
2023-01-06T20:51:53.640Z,97547.63
2023-01-06T20:54:23.569Z,97545.15
2023-01-06T20:56:54.929Z,97538.87
2023-01-06T20:59:27.400Z,97538.63
2023-01-06T21:01:57.830Z,97542.72
2023-01-06T21:04:27.279Z,97529.09
2023-01-06T21:06:56.581Z,97536.72
2023-01-06T21:09:27.124Z,97526.36
2023-01-06T21:11:56.795Z,97529.91
2023-01-06T21:14:26.273Z,97526.88
2023-01-06T21:16:55.472Z,97522.00
2023-01-06T21:19:24.823Z,97525.27
2023-01-06T21:21:53.988Z,97522.30
2023-01-06T21:24:23.666Z,97530.48
2023-01-06T21:26:53.627Z,97529.91
2023-01-06T21:29:23.692Z,97531.54
2023-01-06T21:31:53.675Z,97536.99
2023-01-06T21:34:23.410Z,97538.66
2023-01-06T21:36:53.604Z,97535.08
2023-01-06T21:39:23.687Z,97531.84
2023-01-06T21:42:11.405Z,97531.56
2023-01-06T21:44:40.600Z,97532.38
2023-01-06T21:47:11.056Z,97522.56
2023-01-06T21:49:41.955Z,97529.38
2023-01-06T21:52:11.663Z,97525.02
2023-01-06T21:54:41.174Z,97517.11
2023-01-06T21:57:10.790Z,97522.84
2023-01-06T21:59:40.041Z,97524.50
2023-01-06T22:02:10.043Z,97532.68
2023-01-06T22:04:39.283Z,97534.31
2023-01-06T22:07:09.982Z,97532.68
2023-01-06T22:09:39.562Z,97541.38
2023-01-06T22:12:08.998Z,97540.02
2023-01-06T22:14:40.652Z,97553.92
2023-01-06T22:17:09.878Z,97552.02
2023-01-06T22:19:39.217Z,97540.86
2023-01-06T22:22:08.455Z,97547.37
2023-01-06T22:24:37.954Z,97544.11
2023-01-06T22:27:07.321Z,97548.74
2023-01-06T22:29:36.599Z,97552.83
2023-01-06T22:32:06.158Z,97551.77
2023-01-06T22:34:35.709Z,97554.20
2023-01-06T22:37:04.906Z,97555.02
2023-01-06T22:39:34.671Z,97547.68
2023-01-06T22:42:03.932Z,97546.31
2023-01-06T22:44:36.153Z,97552.04
2023-01-06T22:47:05.390Z,97550.67
2023-01-06T22:49:34.899Z,97556.13
2023-01-06T22:52:03.991Z,97552.59
2023-01-06T22:54:33.166Z,97560.22
2023-01-06T22:57:02.499Z,97568.16
2023-01-06T22:59:31.797Z,97571.40
2023-01-06T23:02:01.209Z,97568.41
2023-01-06T23:04:30.596Z,97580.95
2023-01-06T23:06:59.949Z,97577.41
2023-01-06T23:09:29.243Z,97586.95
2023-01-06T23:11:58.575Z,97583.41
2023-01-06T23:14:29.794Z,97583.41
2023-01-06T23:16:58.520Z,97591.31
2023-01-06T23:19:29.835Z,97585.86
2023-01-06T23:21:58.515Z,97583.13
2023-01-06T23:24:27.804Z,97577.37
2023-01-06T23:26:57.279Z,97578.74
2023-01-06T23:29:26.843Z,97575.74
2023-01-06T23:31:56.133Z,97580.10
2023-01-06T23:34:25.721Z,97586.38
2023-01-06T23:36:55.364Z,97578.44
2023-01-06T23:39:24.660Z,97578.47
2023-01-06T23:41:54.879Z,97577.35
2023-01-06T23:44:25.649Z,97563.99
2023-01-06T23:46:54.851Z,97560.96
2023-01-06T23:49:24.440Z,97566.17
2023-01-06T23:51:54.283Z,97561.81
2023-01-06T23:54:27.534Z,97565.36
2023-01-06T23:56:56.821Z,97572.97
2023-01-06T23:59:25.927Z,97586.87
